sensor_id;sensor_type;location;lat;lon;timestamp;pressure;altitude;pressure_sealevel;temperature;humidity
53506;BME280;39388;50.936;6.848;2022-07-29T00:00:18;100918.16;;;21.07;49.28
53506;BME280;39388;50.936;6.848;2022-07-29T00:02:48;100905.16;;;21.04;49.38
53506;BME280;39388;50.936;6.848;2022-07-29T00:05:18;100901.69;;;21.03;49.33
53506;BME280;39388;50.936;6.848;2022-07-29T00:07:49;100893.13;;;21.00;49.45
53506;BME280;39388;50.936;6.848;2022-07-29T00:10:19;100894.13;;;20.97;49.50
53506;BME280;39388;50.936;6.848;2022-07-29T00:12:50;100889.09;;;20.92;49.58
53506;BME280;39388;50.936;6.848;2022-07-29T00:15:20;100890.06;;;20.90;49.92
53506;BME280;39388;50.936;6.848;2022-07-29T00:17:51;100892.69;;;20.90;49.89
53506;BME280;39388;50.936;6.848;2022-07-29T00:20:21;100884.94;;;20.87;49.92
53506;BME280;39388;50.936;6.848;2022-07-29T00:22:52;100873.84;;;20.82;50.01
53506;BME280;39388;50.936;6.848;2022-07-29T00:25:23;100873.97;;;20.78;49.94
53506;BME280;39388;50.936;6.848;2022-07-29T00:27:53;100877.16;;;20.85;50.16
53506;BME280;39388;50.936;6.848;2022-07-29T00:30:24;100880.72;;;20.84;50.11
53506;BME280;39388;50.936;6.848;2022-07-29T00:32:54;100873.75;;;20.83;50.22
53506;BME280;39388;50.936;6.848;2022-07-29T00:35:25;100873.72;;;20.85;50.12
53506;BME280;39388;50.936;6.848;2022-07-29T00:38:15;100869.31;;;20.85;50.27
53506;BME280;39388;50.936;6.848;2022-07-29T00:40:47;100866.69;;;20.85;50.10
53506;BME280;39388;50.936;6.848;2022-07-29T00:43:17;100863.28;;;20.83;50.15
53506;BME280;39388;50.936;6.848;2022-07-29T00:45:48;100857.25;;;20.81;50.34
53506;BME280;39388;50.936;6.848;2022-07-29T00:48:18;100849.47;;;20.79;50.42
53506;BME280;39388;50.936;6.848;2022-07-29T00:50:49;100844.16;;;20.81;50.58
53506;BME280;39388;50.936;6.848;2022-07-29T00:53:20;100836.59;;;20.75;50.73
53506;BME280;39388;50.936;6.848;2022-07-29T00:55:53;100837.38;;;20.77;50.79
53506;BME280;39388;50.936;6.848;2022-07-29T00:58:24;100832.13;;;20.77;50.68
53506;BME280;39388;50.936;6.848;2022-07-29T01:00:57;100835.72;;;20.74;50.97
53506;BME280;39388;50.936;6.848;2022-07-29T01:03:27;100836.63;;;20.73;50.69
53506;BME280;39388;50.936;6.848;2022-07-29T01:05:58;100827.25;;;20.69;50.71
53506;BME280;39388;50.936;6.848;2022-07-29T01:08:31;100827.28;;;20.68;50.89
53506;BME280;39388;50.936;6.848;2022-07-29T01:11:02;100823.06;;;20.65;50.87
53506;BME280;39388;50.936;6.848;2022-07-29T01:13:33;100814.31;;;20.64;50.73
53506;BME280;39388;50.936;6.848;2022-07-29T01:16:11;100799.91;;;20.56;50.75
53506;BME280;39388;50.936;6.848;2022-07-29T01:18:46;100811.72;;;20.64;50.83
53506;BME280;39388;50.936;6.848;2022-07-29T01:24:47;100806.91;;;20.55;50.79
53506;BME280;39388;50.936;6.848;2022-07-29T01:30:14;100808.47;;;20.59;50.75
53506;BME280;39388;50.936;6.848;2022-07-29T01:32:47;100818.94;;;20.59;50.89
53506;BME280;39388;50.936;6.848;2022-07-29T01:35:25;100816.47;;;20.56;50.97
53506;BME280;39388;50.936;6.848;2022-07-29T01:38:13;100813.00;;;20.56;51.43
53506;BME280;39388;50.936;6.848;2022-07-29T01:41:02;100811.47;;;20.50;51.19
53506;BME280;39388;50.936;6.848;2022-07-29T01:43:42;100820.06;;;20.54;51.09
53506;BME280;39388;50.936;6.848;2022-07-29T01:46:20;100822.81;;;20.51;51.18
53506;BME280;39388;50.936;6.848;2022-07-29T01:48:57;100807.31;;;20.46;51.27
53506;BME280;39388;50.936;6.848;2022-07-29T01:51:31;100816.72;;;20.50;51.35
53506;BME280;39388;50.936;6.848;2022-07-29T01:56:40;100804.00;;;20.42;51.48
53506;BME280;39388;50.936;6.848;2022-07-29T01:59:12;100799.84;;;20.37;51.47
53506;BME280;39388;50.936;6.848;2022-07-29T02:01:43;100793.69;;;20.38;51.33
53506;BME280;39388;50.936;6.848;2022-07-29T02:04:16;100792.00;;;20.37;51.50
53506;BME280;39388;50.936;6.848;2022-07-29T02:06:49;100797.41;;;20.32;51.63
53506;BME280;39388;50.936;6.848;2022-07-29T02:09:21;100785.53;;;20.25;51.73
53506;BME280;39388;50.936;6.848;2022-07-29T02:11:54;100806.41;;;20.26;51.73
53506;BME280;39388;50.936;6.848;2022-07-29T02:14:25;100801.16;;;20.26;52.04
53506;BME280;39388;50.936;6.848;2022-07-29T02:16:58;100809.94;;;20.25;51.73
53506;BME280;39388;50.936;6.848;2022-07-29T02:19:32;100810.84;;;20.24;51.62
53506;BME280;39388;50.936;6.848;2022-07-29T02:22:05;100807.44;;;20.22;51.85
53506;BME280;39388;50.936;6.848;2022-07-29T02:24:38;100794.50;;;20.19;52.21
53506;BME280;39388;50.936;6.848;2022-07-29T02:27:11;100791.22;;;20.14;52.39
53506;BME280;39388;50.936;6.848;2022-07-29T02:29:43;100800.22;;;20.08;52.53
53506;BME280;39388;50.936;6.848;2022-07-29T02:32:15;100804.56;;;20.08;52.79
53506;BME280;39388;50.936;6.848;2022-07-29T02:34:47;100804.84;;;20.01;52.83
53506;BME280;39388;50.936;6.848;2022-07-29T02:37:19;100808.47;;;19.99;53.22
53506;BME280;39388;50.936;6.848;2022-07-29T02:39:52;100814.47;;;20.01;53.27
53506;BME280;39388;50.936;6.848;2022-07-29T02:42:24;100817.22;;;19.98;53.20
53506;BME280;39388;50.936;6.848;2022-07-29T02:44:56;100811.34;;;19.93;53.41
53506;BME280;39388;50.936;6.848;2022-07-29T02:47:47;100814.66;;;19.96;53.72
53506;BME280;39388;50.936;6.848;2022-07-29T02:50:26;100816.56;;;19.93;53.61
53506;BME280;39388;50.936;6.848;2022-07-29T02:55:33;100830.09;;;19.82;53.69
53506;BME280;39388;50.936;6.848;2022-07-29T02:58:30;100840.94;;;19.72;53.54
53506;BME280;39388;50.936;6.848;2022-07-29T03:03:52;100852.56;;;19.65;54.21
53506;BME280;39388;50.936;6.848;2022-07-29T03:06:24;100845.78;;;19.61;54.21
53506;BME280;39388;50.936;6.848;2022-07-29T03:08:55;100845.69;;;19.63;54.08
53506;BME280;39388;50.936;6.848;2022-07-29T03:11:28;100850.84;;;19.64;53.96
53506;BME280;39388;50.936;6.848;2022-07-29T03:13:59;100845.78;;;19.61;53.87
53506;BME280;39388;50.936;6.848;2022-07-29T03:16:31;100840.66;;;19.58;53.79
53506;BME280;39388;50.936;6.848;2022-07-29T03:19:03;100839.75;;;19.59;53.79
53506;BME280;39388;50.936;6.848;2022-07-29T03:21:34;100826.91;;;19.53;53.71
53506;BME280;39388;50.936;6.848;2022-07-29T03:24:05;100823.66;;;19.48;53.74
53506;BME280;39388;50.936;6.848;2022-07-29T03:26:36;100839.03;;;19.55;53.40
53506;BME280;39388;50.936;6.848;2022-07-29T03:29:06;100846.88;;;19.55;53.63
53506;BME280;39388;50.936;6.848;2022-07-29T03:31:36;100839.03;;;19.55;53.54
53506;BME280;39388;50.936;6.848;2022-07-29T03:34:07;100836.47;;;19.54;53.55
53506;BME280;39388;50.936;6.848;2022-07-29T03:36:37;100840.06;;;19.51;53.61
53506;BME280;39388;50.936;6.848;2022-07-29T03:39:09;100848.69;;;19.53;53.50
53506;BME280;39388;50.936;6.848;2022-07-29T03:41:42;100847.91;;;19.51;53.56
53506;BME280;39388;50.936;6.848;2022-07-29T03:44:15;100842.88;;;19.47;53.52
53506;BME280;39388;50.936;6.848;2022-07-29T03:46:48;100849.81;;;19.48;53.57
53506;BME280;39388;50.936;6.848;2022-07-29T03:49:21;100838.75;;;19.41;53.60
53506;BME280;39388;50.936;6.848;2022-07-29T03:51:53;100842.25;;;19.40;53.58
53506;BME280;39388;50.936;6.848;2022-07-29T03:54:24;100849.13;;;19.42;53.65
53506;BME280;39388;50.936;6.848;2022-07-29T03:56:57;100856.97;;;19.42;53.72
53506;BME280;39388;50.936;6.848;2022-07-29T03:59:30;100859.59;;;19.42;53.83
53506;BME280;39388;50.936;6.848;2022-07-29T04:02:03;100859.59;;;19.42;53.66
53506;BME280;39388;50.936;6.848;2022-07-29T04:04:35;100849.25;;;19.39;53.64
53506;BME280;39388;50.936;6.848;2022-07-29T04:07:06;100846.59;;;19.41;53.60
53506;BME280;39388;50.936;6.848;2022-07-29T04:09:36;100849.13;;;19.42;53.75
53506;BME280;39388;50.936;6.848;2022-07-29T04:12:07;100840.47;;;19.40;53.66
53506;BME280;39388;50.936;6.848;2022-07-29T04:14:37;100831.88;;;19.37;53.78
53506;BME280;39388;50.936;6.848;2022-07-29T04:17:08;100835.38;;;19.37;53.90
53506;BME280;39388;50.936;6.848;2022-07-29T04:19:38;100848.31;;;19.40;54.18
53506;BME280;39388;50.936;6.848;2022-07-29T04:22:08;100847.50;;;19.40;54.50
53506;BME280;39388;50.936;6.848;2022-07-29T04:24:39;100851.75;;;19.42;54.07
53506;BME280;39388;50.936;6.848;2022-07-29T04:27:09;100852.56;;;19.43;54.08
53506;BME280;39388;50.936;6.848;2022-07-29T04:29:39;100845.66;;;19.42;54.09
53506;BME280;39388;50.936;6.848;2022-07-29T04:32:10;100851.81;;;19.41;54.17
53506;BME280;39388;50.936;6.848;2022-07-29T04:34:40;100847.50;;;19.40;54.40
53506;BME280;39388;50.936;6.848;2022-07-29T04:37:11;100852.72;;;19.40;54.41
53506;BME280;39388;50.936;6.848;2022-07-29T04:39:41;100857.94;;;19.40;54.50
53506;BME280;39388;50.936;6.848;2022-07-29T04:42:11;100863.19;;;19.40;54.59
53506;BME280;39388;50.936;6.848;2022-07-29T04:44:42;100867.53;;;19.39;54.43
53506;BME280;39388;50.936;6.848;2022-07-29T04:47:12;100871.81;;;19.42;54.72
53506;BME280;39388;50.936;6.848;2022-07-29T04:49:42;100852.09;;;19.33;54.68
53506;BME280;39388;50.936;6.848;2022-07-29T04:52:13;100863.91;;;19.44;54.71
53506;BME280;39388;50.936;6.848;2022-07-29T04:54:43;100871.63;;;19.47;54.68
53506;BME280;39388;50.936;6.848;2022-07-29T04:57:14;100870.75;;;19.46;54.80
53506;BME280;39388;50.936;6.848;2022-07-29T04:59:44;100879.47;;;19.47;55.32
53506;BME280;39388;50.936;6.848;2022-07-29T05:02:15;100882.81;;;19.50;54.84
53506;BME280;39388;50.936;6.848;2022-07-29T05:04:45;100884.53;;;19.51;54.84
53506;BME280;39388;50.936;6.848;2022-07-29T05:07:15;100877.59;;;19.50;54.83
53506;BME280;39388;50.936;6.848;2022-07-29T05:09:46;100881.94;;;19.50;54.83
53506;BME280;39388;50.936;6.848;2022-07-29T05:12:16;100886.16;;;19.54;54.94
53506;BME280;39388;50.936;6.848;2022-07-29T05:14:47;100881.94;;;19.50;54.58
53506;BME280;39388;50.936;6.848;2022-07-29T05:17:17;100887.97;;;19.52;55.06
53506;BME280;39388;50.936;6.848;2022-07-29T05:19:47;100881.94;;;19.50;55.30
53506;BME280;39388;50.936;6.848;2022-07-29T05:22:18;100895.59;;;19.58;55.34
53506;BME280;39388;50.936;6.848;2022-07-29T05:24:49;100889.69;;;19.53;55.71
53506;BME280;39388;50.936;6.848;2022-07-29T05:27:19;100885.44;;;19.50;55.76
53506;BME280;39388;50.936;6.848;2022-07-29T05:29:50;100891.56;;;19.49;56.12
53506;BME280;39388;50.936;6.848;2022-07-29T05:32:20;100878.72;;;19.43;56.32
53506;BME280;39388;50.936;6.848;2022-07-29T05:34:50;100891.66;;;19.48;56.35
53506;BME280;39388;50.936;6.848;2022-07-29T05:37:21;100895.03;;;19.50;56.57
53506;BME280;39388;50.936;6.848;2022-07-29T05:39:51;100906.47;;;19.47;56.57
53506;BME280;39388;50.936;6.848;2022-07-29T05:42:22;100916.75;;;19.52;56.74
53506;BME280;39388;50.936;6.848;2022-07-29T05:44:53;100917.59;;;19.52;56.80
53506;BME280;39388;50.936;6.848;2022-07-29T05:47:25;100925.34;;;19.55;56.79
53506;BME280;39388;50.936;6.848;2022-07-29T05:49:55;100920.09;;;19.55;56.75
53506;BME280;39388;50.936;6.848;2022-07-29T05:52:26;100920.84;;;19.59;56.79
53506;BME280;39388;50.936;6.848;2022-07-29T05:54:57;100934.63;;;19.63;56.74
53506;BME280;39388;50.936;6.848;2022-07-29T05:57:27;100930.19;;;19.65;56.83
53506;BME280;39388;50.936;6.848;2022-07-29T05:59:57;100943.09;;;19.69;56.82
53506;BME280;39388;50.936;6.848;2022-07-29T06:02:28;100946.38;;;19.75;56.76
53506;BME280;39388;50.936;6.848;2022-07-29T06:04:58;100947.94;;;19.79;56.70
53506;BME280;39388;50.936;6.848;2022-07-29T06:07:29;100941.03;;;19.78;56.63
53506;BME280;39388;50.936;6.848;2022-07-29T06:10:00;100962.44;;;19.87;56.53
53506;BME280;39388;50.936;6.848;2022-07-29T06:12:31;100963.31;;;19.88;56.66
53506;BME280;39388;50.936;6.848;2022-07-29T06:15:02;100972.13;;;19.85;56.84
53506;BME280;39388;50.936;6.848;2022-07-29T06:17:32;100978.63;;;19.75;57.15
53506;BME280;39388;50.936;6.848;2022-07-29T06:20:03;100973.50;;;19.72;57.78
53506;BME280;39388;50.936;6.848;2022-07-29T06:22:34;100959.88;;;19.64;57.60
53506;BME280;39388;50.936;6.848;2022-07-29T06:25:06;100964.13;;;19.66;57.68
53506;BME280;39388;50.936;6.848;2022-07-29T06:27:36;100967.84;;;19.61;57.91
53506;BME280;39388;50.936;6.848;2022-07-29T06:30:07;100968.09;;;19.54;58.00
53506;BME280;39388;50.936;6.848;2022-07-29T06:32:37;100965.63;;;19.50;58.23
53506;BME280;39388;50.936;6.848;2022-07-29T06:35:08;100958.75;;;19.47;58.24
53506;BME280;39388;50.936;6.848;2022-07-29T06:37:39;100952.69;;;19.47;58.33
53506;BME280;39388;50.936;6.848;2022-07-29T06:40:09;100948.59;;;19.39;58.51
53506;BME280;39388;50.936;6.848;2022-07-29T06:42:58;100959.03;;;19.41;58.65
53506;BME280;39388;50.936;6.848;2022-07-29T06:45:29;100953.00;;;19.39;58.95
53506;BME280;39388;50.936;6.848;2022-07-29T06:47:59;100958.88;;;19.44;59.04
53506;BME280;39388;50.936;6.848;2022-07-29T06:50:30;100958.94;;;19.42;59.37
53506;BME280;39388;50.936;6.848;2022-07-29T06:53:00;100957.25;;;19.41;59.15
53506;BME280;39388;50.936;6.848;2022-07-29T06:55:30;100962.47;;;19.41;59.16
53506;BME280;39388;50.936;6.848;2022-07-29T06:58:01;100956.66;;;19.33;59.52
53506;BME280;39388;50.936;6.848;2022-07-29T07:00:32;100956.69;;;19.32;59.95
53506;BME280;39388;50.936;6.848;2022-07-29T07:03:02;100949.09;;;19.25;60.52
53506;BME280;39388;50.936;6.848;2022-07-29T07:05:32;100941.38;;;19.22;61.31
53506;BME280;39388;50.936;6.848;2022-07-29T07:08:03;100934.63;;;19.17;62.28
53506;BME280;39388;50.936;6.848;2022-07-29T07:10:34;100949.28;;;19.21;62.72
53506;BME280;39388;50.936;6.848;2022-07-29T07:13:05;100949.31;;;19.19;63.28
53506;BME280;39388;50.936;6.848;2022-07-29T07:15:35;100949.38;;;19.18;63.85
53506;BME280;39388;50.936;6.848;2022-07-29T07:18:07;100954.66;;;19.16;64.12
53506;BME280;39388;50.936;6.848;2022-07-29T07:20:37;100960.84;;;19.14;64.36
53506;BME280;39388;50.936;6.848;2022-07-29T07:23:08;100972.94;;;19.16;64.78
53506;BME280;39388;50.936;6.848;2022-07-29T07:25:38;100966.78;;;19.19;65.32
53506;BME280;39388;50.936;6.848;2022-07-29T07:28:09;100968.19;;;19.27;65.62
53506;BME280;39388;50.936;6.848;2022-07-29T07:30:39;100960.97;;;19.34;65.69
53506;BME280;39388;50.936;6.848;2022-07-29T07:33:10;100955.69;;;19.36;65.37
53506;BME280;39388;50.936;6.848;2022-07-29T07:35:41;100965.97;;;19.42;65.13
53506;BME280;39388;50.936;6.848;2022-07-29T07:38:12;100965.88;;;19.44;65.38
53506;BME280;39388;50.936;6.848;2022-07-29T07:40:43;100964.25;;;19.41;65.52
53506;BME280;39388;50.936;6.848;2022-07-29T07:43:13;100978.06;;;19.45;65.86
53506;BME280;39388;50.936;6.848;2022-07-29T07:45:43;100968.56;;;19.42;66.17
53506;BME280;39388;50.936;6.848;2022-07-29T07:48:14;100966.91;;;19.39;66.40
53506;BME280;39388;50.936;6.848;2022-07-29T07:50:44;100978.22;;;19.40;66.66
53506;BME280;39388;50.936;6.848;2022-07-29T07:53:15;100963.59;;;19.34;67.10
53506;BME280;39388;50.936;6.848;2022-07-29T07:55:45;100951.47;;;19.32;67.50
53506;BME280;39388;50.936;6.848;2022-07-29T07:58:16;100959.28;;;19.33;68.12
53506;BME280;39388;50.936;6.848;2022-07-29T08:00:46;100968.75;;;19.36;68.36
53506;BME280;39388;50.936;6.848;2022-07-29T08:03:17;100972.09;;;19.41;68.17
53506;BME280;39388;50.936;6.848;2022-07-29T08:05:47;100965.88;;;19.44;68.26
53506;BME280;39388;50.936;6.848;2022-07-29T08:08:18;100939.91;;;19.39;68.63
53506;BME280;39388;50.936;6.848;2022-07-29T08:10:48;100944.06;;;19.45;68.85
53506;BME280;39388;50.936;6.848;2022-07-29T08:13:24;100955.25;;;19.48;68.98
53506;BME280;39388;50.936;6.848;2022-07-29T08:15:58;100956.22;;;19.46;68.72
53506;BME280;39388;50.936;6.848;2022-07-29T08:18:42;100945.75;;;19.46;68.56
53506;BME280;39388;50.936;6.848;2022-07-29T08:21:14;100954.34;;;19.49;68.29
53506;BME280;39388;50.936;6.848;2022-07-29T08:23:44;100955.97;;;19.52;68.15
53506;BME280;39388;50.936;6.848;2022-07-29T08:26:17;100940.53;;;19.46;67.97
53506;BME280;39388;50.936;6.848;2022-07-29T08:28:47;100935.13;;;19.50;67.97
53506;BME280;39388;50.936;6.848;2022-07-29T08:31:20;100913.50;;;19.45;67.89
53506;BME280;39388;50.936;6.848;2022-07-29T08:33:50;100931.59;;;19.51;67.59
53506;BME280;39388;50.936;6.848;2022-07-29T08:36:21;100931.59;;;19.51;67.50
53506;BME280;39388;50.936;6.848;2022-07-29T08:38:52;100954.84;;;19.59;67.54
53506;BME280;39388;50.936;6.848;2022-07-29T08:41:22;100959.78;;;19.67;67.55
53506;BME280;39388;50.936;6.848;2022-07-29T08:43:53;100959.41;;;19.76;67.85
53506;BME280;39388;50.936;6.848;2022-07-29T08:46:23;100956.56;;;19.82;67.58
53506;BME280;39388;50.936;6.848;2022-07-29T08:48:54;100965.81;;;19.91;67.34
53506;BME280;39388;50.936;6.848;2022-07-29T08:51:26;100968.13;;;19.99;67.60
53506;BME280;39388;50.936;6.848;2022-07-29T08:53:58;100972.25;;;20.05;67.57
53506;BME280;39388;50.936;6.848;2022-07-29T08:56:28;100967.06;;;20.03;67.80
53506;BME280;39388;50.936;6.848;2022-07-29T08:59:03;100973.81;;;20.09;67.64
53506;BME280;39388;50.936;6.848;2022-07-29T09:01:37;100960.72;;;20.09;67.50
53506;BME280;39388;50.936;6.848;2022-07-29T09:04:10;100955.06;;;19.97;67.16
53506;BME280;39388;50.936;6.848;2022-07-29T09:06:47;100967.25;;;19.98;67.01
53506;BME280;39388;50.936;6.848;2022-07-29T09:09:18;100958.72;;;19.93;67.01
53506;BME280;39388;50.936;6.848;2022-07-29T09:11:48;100956.28;;;19.88;67.18
53506;BME280;39388;50.936;6.848;2022-07-29T09:14:19;100951.13;;;19.87;67.30
53506;BME280;39388;50.936;6.848;2022-07-29T09:16:52;100957.69;;;19.97;67.84
53506;BME280;39388;50.936;6.848;2022-07-29T09:19:24;100965.22;;;20.05;67.31
53506;BME280;39388;50.936;6.848;2022-07-29T09:21:57;100953.78;;;20.08;66.92
53506;BME280;39388;50.936;6.848;2022-07-29T09:24:43;100961.59;;;20.30;67.12
53506;BME280;39388;50.936;6.848;2022-07-29T09:30:04;100957.53;;;21.05;65.27
53506;BME280;39388;50.936;6.848;2022-07-29T09:32:54;100964.09;;;21.35;63.96
53506;BME280;39388;50.936;6.848;2022-07-29T09:35:26;100960.91;;;21.47;62.63
53506;BME280;39388;50.936;6.848;2022-07-29T09:37:57;100961.16;;;21.60;61.91
53506;BME280;39388;50.936;6.848;2022-07-29T09:40:27;100960.16;;;21.82;61.15
53506;BME280;39388;50.936;6.848;2022-07-29T09:43:09;100956.09;;;22.11;60.16
53506;BME280;39388;50.936;6.848;2022-07-29T09:45:40;100961.47;;;22.27;59.26
53506;BME280;39388;50.936;6.848;2022-07-29T09:48:22;100957.22;;;22.25;58.53
53506;BME280;39388;50.936;6.848;2022-07-29T09:50:52;100966.00;;;22.24;58.46
53506;BME280;39388;50.936;6.848;2022-07-29T09:56:04;100967.66;;;22.26;57.29
53506;BME280;39388;50.936;6.848;2022-07-29T09:58:34;100968.25;;;22.31;57.08
53506;BME280;39388;50.936;6.848;2022-07-29T10:01:05;100971.41;;;22.38;57.48
53506;BME280;39388;50.936;6.848;2022-07-29T10:03:52;100969.50;;;22.42;57.26
53506;BME280;39388;50.936;6.848;2022-07-29T10:06:22;100963.34;;;22.43;57.11
53506;BME280;39388;50.936;6.848;2022-07-29T10:08:53;100968.25;;;22.49;56.54
53506;BME280;39388;50.936;6.848;2022-07-29T10:11:24;100968.88;;;22.54;56.19
53506;BME280;39388;50.936;6.848;2022-07-29T10:13:55;100970.19;;;22.63;56.12
53506;BME280;39388;50.936;6.848;2022-07-29T10:16:26;100962.31;;;22.63;56.07
53506;BME280;39388;50.936;6.848;2022-07-29T10:19:02;100970.31;;;22.77;56.36
53506;BME280;39388;50.936;6.848;2022-07-29T10:21:33;100963.56;;;22.89;55.76
53506;BME280;39388;50.936;6.848;2022-07-29T10:24:04;100978.66;;;23.03;55.29
53506;BME280;39388;50.936;6.848;2022-07-29T10:26:36;100968.72;;;23.09;55.39
53506;BME280;39388;50.936;6.848;2022-07-29T10:29:09;100972.88;;;23.13;54.81
53506;BME280;39388;50.936;6.848;2022-07-29T10:37:43;100957.03;;;23.46;53.88
53506;BME280;39388;50.936;6.848;2022-07-29T10:40:53;100966.16;;;23.57;52.42
53506;BME280;39388;50.936;6.848;2022-07-29T10:43:46;100959.50;;;23.65;52.70
53506;BME280;39388;50.936;6.848;2022-07-29T10:46:17;100964.78;;;23.81;52.37
53506;BME280;39388;50.936;6.848;2022-07-29T10:54:42;100962.22;;;24.26;52.48
53506;BME280;39388;50.936;6.848;2022-07-29T11:02:42;100957.91;;;24.70;51.42
53506;BME280;39388;50.936;6.848;2022-07-29T11:05:15;100958.28;;;24.79;50.95
53506;BME280;39388;50.936;6.848;2022-07-29T11:08:16;100954.22;;;24.87;50.48
53506;BME280;39388;50.936;6.848;2022-07-29T11:10:48;100953.66;;;24.82;50.53
53506;BME280;39388;50.936;6.848;2022-07-29T11:16:18;100958.75;;;25.00;49.06
53506;BME280;39388;50.936;6.848;2022-07-29T11:21:46;100950.81;;;25.14;48.38
53506;BME280;39388;50.936;6.848;2022-07-29T11:24:22;100951.28;;;25.21;48.38
53506;BME280;39388;50.936;6.848;2022-07-29T11:27:15;100948.53;;;25.23;48.15
53506;BME280;39388;50.936;6.848;2022-07-29T11:29:54;100952.19;;;25.34;48.26
53506;BME280;39388;50.936;6.848;2022-07-29T11:32:35;100950.50;;;25.48;48.01
53506;BME280;39388;50.936;6.848;2022-07-29T11:35:23;100939.56;;;25.54;47.63
53506;BME280;39388;50.936;6.848;2022-07-29T11:38:26;100939.88;;;25.62;47.27
53506;BME280;39388;50.936;6.848;2022-07-29T11:43:56;100943.03;;;25.55;46.46
53506;BME280;39388;50.936;6.848;2022-07-29T11:46:49;100942.53;;;25.62;46.11
53506;BME280;39388;50.936;6.848;2022-07-29T11:49:23;100942.91;;;25.71;45.76
53506;BME280;39388;50.936;6.848;2022-07-29T11:51:56;100943.63;;;25.73;45.47
53506;BME280;39388;50.936;6.848;2022-07-29T11:54:31;100944.16;;;25.78;45.24
53506;BME280;39388;50.936;6.848;2022-07-29T11:57:02;100946.41;;;25.84;44.88
53506;BME280;39388;50.936;6.848;2022-07-29T11:59:39;100939.38;;;25.98;44.20
53506;BME280;39388;50.936;6.848;2022-07-29T12:02:10;100939.06;;;26.02;44.13
53506;BME280;39388;50.936;6.848;2022-07-29T12:09:58;100947.91;;;26.16;43.56
53506;BME280;39388;50.936;6.848;2022-07-29T12:12:29;100941.50;;;26.05;43.82
53506;BME280;39388;50.936;6.848;2022-07-29T12:15:15;100948.25;;;25.96;43.96
53506;BME280;39388;50.936;6.848;2022-07-29T12:17:48;100948.94;;;25.86;43.65
53506;BME280;39388;50.936;6.848;2022-07-29T12:20:23;100948.69;;;25.76;43.91
53506;BME280;39388;50.936;6.848;2022-07-29T12:22:55;100954.44;;;25.83;43.70
53506;BME280;39388;50.936;6.848;2022-07-29T12:25:25;100941.47;;;25.92;43.73
53506;BME280;39388;50.936;6.848;2022-07-29T12:28:02;100943.59;;;26.00;43.18
53506;BME280;39388;50.936;6.848;2022-07-29T12:30:38;100946.13;;;26.02;43.01
53506;BME280;39388;50.936;6.848;2022-07-29T12:36:02;100942.72;;;26.14;42.36
53506;BME280;39388;50.936;6.848;2022-07-29T12:38:37;100948.44;;;26.34;42.15
53506;BME280;39388;50.936;6.848;2022-07-29T12:41:10;100943.59;;;26.40;41.85
53506;BME280;39388;50.936;6.848;2022-07-29T12:43:53;100945.19;;;26.56;41.49
53506;BME280;39388;50.936;6.848;2022-07-29T12:46:23;100940.63;;;26.71;40.95
53506;BME280;39388;50.936;6.848;2022-07-29T12:48:54;100936.59;;;26.78;40.91
53506;BME280;39388;50.936;6.848;2022-07-29T12:56:34;100924.56;;;26.87;40.36
53506;BME280;39388;50.936;6.848;2022-07-29T12:59:16;100926.53;;;26.96;39.48
53506;BME280;39388;50.936;6.848;2022-07-29T13:01:49;100932.91;;;27.07;39.64
53506;BME280;39388;50.936;6.848;2022-07-29T13:07:04;100907.97;;;27.22;39.02
53506;BME280;39388;50.936;6.848;2022-07-29T13:09:41;100915.56;;;27.27;38.29
53506;BME280;39388;50.936;6.848;2022-07-29T13:12:13;100928.47;;;27.31;38.30
53506;BME280;39388;50.936;6.848;2022-07-29T13:14:45;100924.13;;;27.30;38.60
53506;BME280;39388;50.936;6.848;2022-07-29T13:17:21;100920.94;;;27.38;38.76
53506;BME280;39388;50.936;6.848;2022-07-29T13:20:08;100915.75;;;27.37;38.93
53506;BME280;39388;50.936;6.848;2022-07-29T13:22:42;100927.31;;;27.36;39.17
53506;BME280;39388;50.936;6.848;2022-07-29T13:25:12;100922.00;;;27.36;39.49
53506;BME280;39388;50.936;6.848;2022-07-29T13:27:43;100919.66;;;27.31;39.85
53506;BME280;39388;50.936;6.848;2022-07-29T13:30:15;100922.72;;;27.38;40.13
53506;BME280;39388;50.936;6.848;2022-07-29T13:32:46;100929.88;;;27.48;39.79
53506;BME280;39388;50.936;6.848;2022-07-29T13:35:17;100913.25;;;27.46;39.62
53506;BME280;39388;50.936;6.848;2022-07-29T13:37:48;100917.06;;;27.55;39.13
53506;BME280;39388;50.936;6.848;2022-07-29T13:40:18;100916.47;;;27.52;38.96
53506;BME280;39388;50.936;6.848;2022-07-29T13:42:49;100913.91;;;27.50;39.45
53506;BME280;39388;50.936;6.848;2022-07-29T13:45:20;100904.34;;;27.60;39.57
53506;BME280;39388;50.936;6.848;2022-07-29T13:47:50;100897.88;;;27.65;38.85
53506;BME280;39388;50.936;6.848;2022-07-29T13:50:21;100899.69;;;27.75;38.94
53506;BME280;39388;50.936;6.848;2022-07-29T13:52:51;100893.78;;;27.72;38.76
53506;BME280;39388;50.936;6.848;2022-07-29T13:55:21;100898.63;;;27.78;38.57
53506;BME280;39388;50.936;6.848;2022-07-29T13:57:52;100903.09;;;27.89;38.26
53506;BME280;39388;50.936;6.848;2022-07-29T14:00:22;100894.56;;;27.85;38.29
53506;BME280;39388;50.936;6.848;2022-07-29T14:02:53;100906.50;;;27.91;38.13
53506;BME280;39388;50.936;6.848;2022-07-29T14:05:24;100903.38;;;27.86;38.52
53506;BME280;39388;50.936;6.848;2022-07-29T14:07:54;100904.78;;;27.90;38.69
53506;BME280;39388;50.936;6.848;2022-07-29T14:10:25;100905.16;;;27.85;38.85
53506;BME280;39388;50.936;6.848;2022-07-29T14:12:56;100905.50;;;27.81;38.55
53506;BME280;39388;50.936;6.848;2022-07-29T14:15:26;100911.38;;;27.73;38.62
53506;BME280;39388;50.936;6.848;2022-07-29T14:17:56;100893.44;;;27.52;38.52
53506;BME280;39388;50.936;6.848;2022-07-29T14:20:27;100912.22;;;27.49;38.83